Republic Airport Farmingdale US
ICAO: KFRG
IATA: FRG
Category: Medium
Scheduled Services: No

Elevation: 82 ft
TransAlt. 18000 ft.

Airport Communications:
NEW YORK APP:118.4
ATIS:126.65
CLNC DEL:128.25
CTAF:118.8
NEW YORK DEP:123.7
GND:121.6
:111.9
TWR:118.8
UNICOM:122.95

KFRG Zoom In..

If you have problems with the map follow the link
https://www.worldairports.se/pages/airport.php?
ICAO=KFRG

Runways:

(A) RW 01 length 5516 ft width 150 ft
---- / hdg 13

(B) RW 14 length 6833 ft width 150 ft
ILS 111.90 / hdg 146

(C) RW 19 length 5516 ft width 150 ft
---- / hdg 193

(D) RW 32 length 6833 ft width 150 ft
---- / hdg 326

Location; KFRG
Day. 16 / Time. 11.30 Zulu
* Altimeter: 29.38
* Temperature: 06° c. 42.8°f.
* Wind from: 020° Speed 18 kn with Gusts up to 26 kn.
Dewpoint: 04° c.
Visibility: 2 m.
Clouds: Scattered 800 ft.
Clouds: Overcast 1200 ft.
Conditions: Rain.Conditions: Mist.

KFRG 161130Z AUTO 02018G26KT 2 1/2SM RA BR SCT008 OVC012 06/04 A2938 RMK AO2 PK WND 02026/1125 P0008 T00560044


Wind From 020°
Speed 18 kn.

 
 
jpsmedia.com for Web Design worldairports.se 2018   terms of use